sensor_id;sensor_type;location;lat;lon;timestamp;P1;durP1;ratioP1;P2;durP2;ratioP2
17520;SDS011;8878;-33.370;-70.552;2022-09-09T00:01:00;0.70;;;0.70;;
17520;SDS011;8878;-33.370;-70.552;2022-09-09T00:03:39;0.60;;;0.60;;
17520;SDS011;8878;-33.370;-70.552;2022-09-09T00:06:16;0.73;;;0.73;;
17520;SDS011;8878;-33.370;-70.552;2022-09-09T00:08:56;0.80;;;0.80;;
17520;SDS011;8878;-33.370;-70.552;2022-09-09T00:11:32;0.53;;;0.53;;
17520;SDS011;8878;-33.370;-70.552;2022-09-09T00:14:11;0.53;;;0.53;;
17520;SDS011;8878;-33.370;-70.552;2022-09-09T00:16:50;0.80;;;0.80;;
17520;SDS011;8878;-33.370;-70.552;2022-09-09T00:19:24;0.50;;;0.50;;
17520;SDS011;8878;-33.370;-70.552;2022-09-09T00:22:05;1.33;;;0.53;;
17520;SDS011;8878;-33.370;-70.552;2022-09-09T00:24:44;0.83;;;0.80;;
17520;SDS011;8878;-33.370;-70.552;2022-09-09T00:27:19;0.90;;;0.90;;
17520;SDS011;8878;-33.370;-70.552;2022-09-09T00:29:55;0.70;;;0.67;;
17520;SDS011;8878;-33.370;-70.552;2022-09-09T00:32:29;1.53;;;0.80;;
17520;SDS011;8878;-33.370;-70.552;2022-09-09T00:35:03;0.43;;;0.43;;
17520;SDS011;8878;-33.370;-70.552;2022-09-09T00:37:44;0.43;;;0.43;;
17520;SDS011;8878;-33.370;-70.552;2022-09-09T00:40:22;0.80;;;0.80;;
17520;SDS011;8878;-33.370;-70.552;2022-09-09T00:42:58;0.60;;;0.60;;
17520;SDS011;8878;-33.370;-70.552;2022-09-09T00:45:53;1.20;;;1.13;;
17520;SDS011;8878;-33.370;-70.552;2022-09-09T00:48:42;0.50;;;0.50;;
17520;SDS011;8878;-33.370;-70.552;2022-09-09T00:51:22;1.03;;;0.97;;
17520;SDS011;8878;-33.370;-70.552;2022-09-09T00:54:03;0.30;;;0.30;;
17520;SDS011;8878;-33.370;-70.552;2022-09-09T00:56:47;1.80;;;1.07;;
17520;SDS011;8878;-33.370;-70.552;2022-09-09T00:59:26;0.50;;;0.50;;
17520;SDS011;8878;-33.370;-70.552;2022-09-09T01:02:03;1.33;;;1.33;;
17520;SDS011;8878;-33.370;-70.552;2022-09-09T01:04:42;0.67;;;0.67;;
17520;SDS011;8878;-33.370;-70.552;2022-09-09T01:07:13;1.50;;;1.40;;
17520;SDS011;8878;-33.370;-70.552;2022-09-09T01:09:51;0.23;;;0.23;;
17520;SDS011;8878;-33.370;-70.552;2022-09-09T01:12:28;0.57;;;0.57;;
17520;SDS011;8878;-33.370;-70.552;2022-09-09T01:15:07;0.87;;;0.87;;
17520;SDS011;8878;-33.370;-70.552;2022-09-09T01:17:44;0.50;;;0.50;;
17520;SDS011;8878;-33.370;-70.552;2022-09-09T01:20:20;0.43;;;0.43;;
17520;SDS011;8878;-33.370;-70.552;2022-09-09T01:26:08;7.63;;;0.77;;
17520;SDS011;8878;-33.370;-70.552;2022-09-09T01:28:46;0.57;;;0.57;;
17520;SDS011;8878;-33.370;-70.552;2022-09-09T01:31:19;0.80;;;0.80;;
17520;SDS011;8878;-33.370;-70.552;2022-09-09T01:33:51;0.90;;;0.90;;
17520;SDS011;8878;-33.370;-70.552;2022-09-09T01:36:23;1.17;;;1.07;;
17520;SDS011;8878;-33.370;-70.552;2022-09-09T01:38:58;0.93;;;0.93;;
17520;SDS011;8878;-33.370;-70.552;2022-09-09T01:41:30;0.73;;;0.73;;
17520;SDS011;8878;-33.370;-70.552;2022-09-09T01:43:59;1.60;;;1.10;;
17520;SDS011;8878;-33.370;-70.552;2022-09-09T01:46:29;1.13;;;0.77;;
17520;SDS011;8878;-33.370;-70.552;2022-09-09T01:48:59;1.20;;;1.20;;
17520;SDS011;8878;-33.370;-70.552;2022-09-09T01:51:30;0.43;;;0.43;;
17520;SDS011;8878;-33.370;-70.552;2022-09-09T01:53:59;0.40;;;0.40;;
17520;SDS011;8878;-33.370;-70.552;2022-09-09T01:56:35;1.60;;;0.40;;
17520;SDS011;8878;-33.370;-70.552;2022-09-09T01:59:18;1.17;;;0.70;;
17520;SDS011;8878;-33.370;-70.552;2022-09-09T02:02:01;0.67;;;0.67;;
17520;SDS011;8878;-33.370;-70.552;2022-09-09T02:04:39;0.50;;;0.50;;
17520;SDS011;8878;-33.370;-70.552;2022-09-09T02:07:15;0.53;;;0.53;;
17520;SDS011;8878;-33.370;-70.552;2022-09-09T02:10:05;0.60;;;0.60;;
17520;SDS011;8878;-33.370;-70.552;2022-09-09T02:12:43;3.07;;;1.40;;
17520;SDS011;8878;-33.370;-70.552;2022-09-09T02:15:17;0.57;;;0.57;;
17520;SDS011;8878;-33.370;-70.552;2022-09-09T02:17:50;12.43;;;1.00;;
17520;SDS011;8878;-33.370;-70.552;2022-09-09T02:20:22;1.90;;;1.03;;
17520;SDS011;8878;-33.370;-70.552;2022-09-09T02:22:54;1.03;;;0.70;;
17520;SDS011;8878;-33.370;-70.552;2022-09-09T02:25:25;1.20;;;1.10;;
17520;SDS011;8878;-33.370;-70.552;2022-09-09T02:27:59;2.63;;;1.47;;
17520;SDS011;8878;-33.370;-70.552;2022-09-09T02:30:29;0.90;;;0.87;;
17520;SDS011;8878;-33.370;-70.552;2022-09-09T02:33:04;0.33;;;0.33;;
17520;SDS011;8878;-33.370;-70.552;2022-09-09T02:35:36;1.40;;;0.83;;
17520;SDS011;8878;-33.370;-70.552;2022-09-09T02:38:08;1.57;;;0.60;;
17520;SDS011;8878;-33.370;-70.552;2022-09-09T02:40:40;1.13;;;1.03;;
17520;SDS011;8878;-33.370;-70.552;2022-09-09T02:43:11;0.80;;;0.80;;
17520;SDS011;8878;-33.370;-70.552;2022-09-09T02:45:44;4.57;;;1.40;;
17520;SDS011;8878;-33.370;-70.552;2022-09-09T02:48:22;9.70;;;1.13;;
17520;SDS011;8878;-33.370;-70.552;2022-09-09T02:50:57;0.53;;;0.53;;
17520;SDS011;8878;-33.370;-70.552;2022-09-09T02:53:38;2.13;;;0.63;;
17520;SDS011;8878;-33.370;-70.552;2022-09-09T02:56:13;1.57;;;1.33;;
17520;SDS011;8878;-33.370;-70.552;2022-09-09T02:58:46;0.27;;;0.27;;
17520;SDS011;8878;-33.370;-70.552;2022-09-09T03:01:17;0.87;;;0.87;;
17520;SDS011;8878;-33.370;-70.552;2022-09-09T03:03:47;1.00;;;0.80;;
17520;SDS011;8878;-33.370;-70.552;2022-09-09T03:06:16;0.87;;;0.83;;
17520;SDS011;8878;-33.370;-70.552;2022-09-09T03:08:45;0.47;;;0.47;;
17520;SDS011;8878;-33.370;-70.552;2022-09-09T03:11:15;0.53;;;0.50;;
17520;SDS011;8878;-33.370;-70.552;2022-09-09T03:13:46;1.70;;;0.90;;
17520;SDS011;8878;-33.370;-70.552;2022-09-09T03:16:16;1.50;;;1.13;;
17520;SDS011;8878;-33.370;-70.552;2022-09-09T03:18:47;1.20;;;1.10;;
17520;SDS011;8878;-33.370;-70.552;2022-09-09T03:21:16;0.70;;;0.70;;
17520;SDS011;8878;-33.370;-70.552;2022-09-09T03:23:46;2.00;;;0.97;;
17520;SDS011;8878;-33.370;-70.552;2022-09-09T03:26:15;0.93;;;0.87;;
17520;SDS011;8878;-33.370;-70.552;2022-09-09T03:28:47;1.07;;;0.83;;
17520;SDS011;8878;-33.370;-70.552;2022-09-09T03:31:18;0.50;;;0.50;;
17520;SDS011;8878;-33.370;-70.552;2022-09-09T03:33:48;0.40;;;0.40;;
17520;SDS011;8878;-33.370;-70.552;2022-09-09T03:36:17;0.93;;;0.93;;
17520;SDS011;8878;-33.370;-70.552;2022-09-09T03:38:46;0.33;;;0.33;;
17520;SDS011;8878;-33.370;-70.552;2022-09-09T03:41:16;1.60;;;1.03;;
17520;SDS011;8878;-33.370;-70.552;2022-09-09T03:43:47;0.80;;;0.80;;
17520;SDS011;8878;-33.370;-70.552;2022-09-09T03:46:17;1.90;;;1.30;;
17520;SDS011;8878;-33.370;-70.552;2022-09-09T03:48:46;0.53;;;0.53;;
17520;SDS011;8878;-33.370;-70.552;2022-09-09T03:51:16;0.73;;;0.73;;
17520;SDS011;8878;-33.370;-70.552;2022-09-09T03:53:48;0.40;;;0.40;;
17520;SDS011;8878;-33.370;-70.552;2022-09-09T03:56:18;0.87;;;0.87;;
17520;SDS011;8878;-33.370;-70.552;2022-09-09T03:58:49;1.43;;;1.33;;
17520;SDS011;8878;-33.370;-70.552;2022-09-09T04:01:18;0.60;;;0.60;;
17520;SDS011;8878;-33.370;-70.552;2022-09-09T04:03:47;1.53;;;1.23;;
17520;SDS011;8878;-33.370;-70.552;2022-09-09T04:06:18;0.57;;;0.47;;
17520;SDS011;8878;-33.370;-70.552;2022-09-09T04:08:47;0.93;;;0.93;;
17520;SDS011;8878;-33.370;-70.552;2022-09-09T04:11:18;1.60;;;0.90;;
17520;SDS011;8878;-33.370;-70.552;2022-09-09T04:13:49;0.80;;;0.80;;
17520;SDS011;8878;-33.370;-70.552;2022-09-09T04:16:18;0.53;;;0.53;;
17520;SDS011;8878;-33.370;-70.552;2022-09-09T04:18:48;0.40;;;0.40;;
17520;SDS011;8878;-33.370;-70.552;2022-09-09T04:21:18;1.83;;;1.00;;
17520;SDS011;8878;-33.370;-70.552;2022-09-09T04:23:48;1.00;;;0.70;;
17520;SDS011;8878;-33.370;-70.552;2022-09-09T04:26:18;0.43;;;0.43;;
17520;SDS011;8878;-33.370;-70.552;2022-09-09T04:28:49;1.97;;;0.97;;
17520;SDS011;8878;-33.370;-70.552;2022-09-09T04:31:19;2.67;;;1.07;;
17520;SDS011;8878;-33.370;-70.552;2022-09-09T04:33:49;0.50;;;0.50;;
17520;SDS011;8878;-33.370;-70.552;2022-09-09T04:36:19;1.30;;;1.20;;
17520;SDS011;8878;-33.370;-70.552;2022-09-09T04:38:48;0.50;;;0.50;;
17520;SDS011;8878;-33.370;-70.552;2022-09-09T04:41:17;0.77;;;0.77;;
17520;SDS011;8878;-33.370;-70.552;2022-09-09T04:43:47;1.43;;;0.57;;
17520;SDS011;8878;-33.370;-70.552;2022-09-09T04:46:20;2.07;;;1.20;;
17520;SDS011;8878;-33.370;-70.552;2022-09-09T04:48:50;1.00;;;1.00;;
17520;SDS011;8878;-33.370;-70.552;2022-09-09T04:51:20;1.23;;;0.77;;
17520;SDS011;8878;-33.370;-70.552;2022-09-09T04:53:49;0.37;;;0.37;;
17520;SDS011;8878;-33.370;-70.552;2022-09-09T04:56:19;0.30;;;0.30;;
17520;SDS011;8878;-33.370;-70.552;2022-09-09T04:58:50;2.10;;;1.30;;
17520;SDS011;8878;-33.370;-70.552;2022-09-09T05:01:20;0.23;;;0.23;;
17520;SDS011;8878;-33.370;-70.552;2022-09-09T05:03:50;0.47;;;0.47;;
17520;SDS011;8878;-33.370;-70.552;2022-09-09T05:06:20;0.93;;;0.83;;
17520;SDS011;8878;-33.370;-70.552;2022-09-09T05:08:50;0.87;;;0.87;;
17520;SDS011;8878;-33.370;-70.552;2022-09-09T05:11:20;0.47;;;0.47;;
17520;SDS011;8878;-33.370;-70.552;2022-09-09T05:13:53;0.87;;;0.87;;
17520;SDS011;8878;-33.370;-70.552;2022-09-09T05:16:23;0.13;;;0.13;;
17520;SDS011;8878;-33.370;-70.552;2022-09-09T05:18:52;0.60;;;0.47;;
17520;SDS011;8878;-33.370;-70.552;2022-09-09T05:21:22;4.70;;;0.90;;
17520;SDS011;8878;-33.370;-70.552;2022-09-09T05:23:52;4.63;;;0.97;;
17520;SDS011;8878;-33.370;-70.552;2022-09-09T05:26:22;0.83;;;0.83;;
17520;SDS011;8878;-33.370;-70.552;2022-09-09T05:28:53;1.70;;;0.87;;
17520;SDS011;8878;-33.370;-70.552;2022-09-09T05:31:22;0.70;;;0.53;;
17520;SDS011;8878;-33.370;-70.552;2022-09-09T05:33:54;0.53;;;0.53;;
17520;SDS011;8878;-33.370;-70.552;2022-09-09T05:36:24;0.70;;;0.70;;
17520;SDS011;8878;-33.370;-70.552;2022-09-09T05:38:54;3.37;;;1.23;;
17520;SDS011;8878;-33.370;-70.552;2022-09-09T05:41:23;0.50;;;0.50;;
17520;SDS011;8878;-33.370;-70.552;2022-09-09T05:43:54;2.80;;;1.03;;
17520;SDS011;8878;-33.370;-70.552;2022-09-09T05:46:25;1.80;;;0.87;;
17520;SDS011;8878;-33.370;-70.552;2022-09-09T05:48:55;0.83;;;0.83;;
17520;SDS011;8878;-33.370;-70.552;2022-09-09T05:51:24;0.67;;;0.67;;
17520;SDS011;8878;-33.370;-70.552;2022-09-09T05:53:55;0.97;;;0.63;;
17520;SDS011;8878;-33.370;-70.552;2022-09-09T05:56:26;1.13;;;1.13;;
17520;SDS011;8878;-33.370;-70.552;2022-09-09T05:58:58;2.17;;;0.83;;
17520;SDS011;8878;-33.370;-70.552;2022-09-09T06:01:28;0.23;;;0.23;;
17520;SDS011;8878;-33.370;-70.552;2022-09-09T06:03:58;0.63;;;0.43;;
17520;SDS011;8878;-33.370;-70.552;2022-09-09T06:06:30;0.63;;;0.63;;
17520;SDS011;8878;-33.370;-70.552;2022-09-09T06:09:03;1.03;;;0.93;;
17520;SDS011;8878;-33.370;-70.552;2022-09-09T06:11:36;2.47;;;0.90;;
17520;SDS011;8878;-33.370;-70.552;2022-09-09T06:14:08;0.70;;;0.70;;
17520;SDS011;8878;-33.370;-70.552;2022-09-09T06:16:38;1.43;;;0.50;;
17520;SDS011;8878;-33.370;-70.552;2022-09-09T06:19:08;0.30;;;0.30;;
17520;SDS011;8878;-33.370;-70.552;2022-09-09T06:21:38;0.30;;;0.30;;
17520;SDS011;8878;-33.370;-70.552;2022-09-09T06:24:08;2.63;;;1.30;;
17520;SDS011;8878;-33.370;-70.552;2022-09-09T06:26:39;0.40;;;0.40;;
17520;SDS011;8878;-33.370;-70.552;2022-09-09T06:29:10;0.30;;;0.30;;
17520;SDS011;8878;-33.370;-70.552;2022-09-09T06:31:40;0.73;;;0.40;;
17520;SDS011;8878;-33.370;-70.552;2022-09-09T06:34:09;0.63;;;0.63;;
17520;SDS011;8878;-33.370;-70.552;2022-09-09T06:36:39;2.13;;;1.23;;
17520;SDS011;8878;-33.370;-70.552;2022-09-09T06:39:08;2.43;;;1.53;;
17520;SDS011;8878;-33.370;-70.552;2022-09-09T06:41:38;0.30;;;0.30;;
17520;SDS011;8878;-33.370;-70.552;2022-09-09T06:44:08;0.47;;;0.47;;
17520;SDS011;8878;-33.370;-70.552;2022-09-09T06:46:39;2.73;;;1.47;;
17520;SDS011;8878;-33.370;-70.552;2022-09-09T06:49:09;0.50;;;0.50;;
17520;SDS011;8878;-33.370;-70.552;2022-09-09T06:51:38;1.03;;;0.93;;
17520;SDS011;8878;-33.370;-70.552;2022-09-09T06:54:08;1.50;;;0.93;;
17520;SDS011;8878;-33.370;-70.552;2022-09-09T06:56:38;0.83;;;0.60;;
17520;SDS011;8878;-33.370;-70.552;2022-09-09T06:59:11;1.83;;;0.47;;
17520;SDS011;8878;-33.370;-70.552;2022-09-09T07:01:41;0.50;;;0.50;;
17520;SDS011;8878;-33.370;-70.552;2022-09-09T07:04:12;1.57;;;1.17;;
17520;SDS011;8878;-33.370;-70.552;2022-09-09T07:06:42;1.50;;;1.37;;
17520;SDS011;8878;-33.370;-70.552;2022-09-09T07:09:12;2.13;;;0.70;;
17520;SDS011;8878;-33.370;-70.552;2022-09-09T07:11:44;2.53;;;1.17;;
17520;SDS011;8878;-33.370;-70.552;2022-09-09T07:14:16;3.00;;;1.10;;
17520;SDS011;8878;-33.370;-70.552;2022-09-09T07:16:45;1.17;;;1.10;;
17520;SDS011;8878;-33.370;-70.552;2022-09-09T07:19:14;1.10;;;0.87;;
17520;SDS011;8878;-33.370;-70.552;2022-09-09T07:21:45;0.37;;;0.37;;
17520;SDS011;8878;-33.370;-70.552;2022-09-09T07:24:15;0.67;;;0.67;;
17520;SDS011;8878;-33.370;-70.552;2022-09-09T07:26:44;0.67;;;0.67;;
17520;SDS011;8878;-33.370;-70.552;2022-09-09T07:29:15;1.53;;;1.10;;
17520;SDS011;8878;-33.370;-70.552;2022-09-09T07:31:45;0.40;;;0.40;;
17520;SDS011;8878;-33.370;-70.552;2022-09-09T07:34:14;0.50;;;0.50;;
17520;SDS011;8878;-33.370;-70.552;2022-09-09T07:36:44;0.17;;;0.17;;
17520;SDS011;8878;-33.370;-70.552;2022-09-09T07:39:14;0.47;;;0.47;;
17520;SDS011;8878;-33.370;-70.552;2022-09-09T07:41:44;0.53;;;0.53;;
17520;SDS011;8878;-33.370;-70.552;2022-09-09T07:44:17;0.40;;;0.40;;
17520;SDS011;8878;-33.370;-70.552;2022-09-09T07:46:47;0.93;;;0.60;;
17520;SDS011;8878;-33.370;-70.552;2022-09-09T07:49:17;0.60;;;0.60;;
17520;SDS011;8878;-33.370;-70.552;2022-09-09T07:51:46;0.67;;;0.67;;
17520;SDS011;8878;-33.370;-70.552;2022-09-09T07:54:16;0.53;;;0.53;;
17520;SDS011;8878;-33.370;-70.552;2022-09-09T07:56:49;1.10;;;0.60;;
17520;SDS011;8878;-33.370;-70.552;2022-09-09T07:59:20;0.87;;;0.87;;
17520;SDS011;8878;-33.370;-70.552;2022-09-09T08:01:50;0.50;;;0.27;;
17520;SDS011;8878;-33.370;-70.552;2022-09-09T08:04:20;0.70;;;0.57;;
17520;SDS011;8878;-33.370;-70.552;2022-09-09T08:06:52;5.77;;;1.07;;
17520;SDS011;8878;-33.370;-70.552;2022-09-09T08:09:23;0.50;;;0.50;;
17520;SDS011;8878;-33.370;-70.552;2022-09-09T08:11:54;0.53;;;0.53;;
17520;SDS011;8878;-33.370;-70.552;2022-09-09T08:14:26;0.47;;;0.43;;
17520;SDS011;8878;-33.370;-70.552;2022-09-09T08:16:55;1.13;;;1.03;;
17520;SDS011;8878;-33.370;-70.552;2022-09-09T08:19:25;1.90;;;0.77;;
17520;SDS011;8878;-33.370;-70.552;2022-09-09T08:21:55;0.20;;;0.20;;
17520;SDS011;8878;-33.370;-70.552;2022-09-09T08:24:25;1.63;;;1.63;;
17520;SDS011;8878;-33.370;-70.552;2022-09-09T08:26:54;1.03;;;1.03;;
17520;SDS011;8878;-33.370;-70.552;2022-09-09T08:29:24;1.63;;;1.40;;
17520;SDS011;8878;-33.370;-70.552;2022-09-09T08:31:56;0.87;;;0.40;;
17520;SDS011;8878;-33.370;-70.552;2022-09-09T08:34:27;0.40;;;0.40;;
17520;SDS011;8878;-33.370;-70.552;2022-09-09T08:36:57;0.87;;;0.83;;
17520;SDS011;8878;-33.370;-70.552;2022-09-09T08:39:26;1.00;;;1.00;;
17520;SDS011;8878;-33.370;-70.552;2022-09-09T08:42:09;1.80;;;0.90;;
17520;SDS011;8878;-33.370;-70.552;2022-09-09T08:45:00;1.10;;;1.03;;
17520;SDS011;8878;-33.370;-70.552;2022-09-09T08:47:46;1.00;;;0.93;;
17520;SDS011;8878;-33.370;-70.552;2022-09-09T08:50:28;1.53;;;1.43;;
17520;SDS011;8878;-33.370;-70.552;2022-09-09T08:53:01;0.23;;;0.23;;
17520;SDS011;8878;-33.370;-70.552;2022-09-09T08:55:37;0.87;;;0.80;;
17520;SDS011;8878;-33.370;-70.552;2022-09-09T08:58:12;3.27;;;0.87;;
17520;SDS011;8878;-33.370;-70.552;2022-09-09T09:00:52;0.40;;;0.40;;
17520;SDS011;8878;-33.370;-70.552;2022-09-09T09:03:34;1.30;;;1.00;;
17520;SDS011;8878;-33.370;-70.552;2022-09-09T09:06:14;0.30;;;0.30;;
17520;SDS011;8878;-33.370;-70.552;2022-09-09T09:08:54;0.40;;;0.40;;
17520;SDS011;8878;-33.370;-70.552;2022-09-09T09:11:34;6.30;;;1.33;;
17520;SDS011;8878;-33.370;-70.552;2022-09-09T09:14:08;1.07;;;0.97;;
17520;SDS011;8878;-33.370;-70.552;2022-09-09T09:16:44;0.37;;;0.37;;
17520;SDS011;8878;-33.370;-70.552;2022-09-09T09:19:18;1.27;;;1.13;;
17520;SDS011;8878;-33.370;-70.552;2022-09-09T09:21:53;2.40;;;0.87;;
17520;SDS011;8878;-33.370;-70.552;2022-09-09T09:24:27;2.07;;;1.97;;
17520;SDS011;8878;-33.370;-70.552;2022-09-09T09:27:10;3.27;;;1.07;;
17520;SDS011;8878;-33.370;-70.552;2022-09-09T09:29:41;1.20;;;1.07;;
17520;SDS011;8878;-33.370;-70.552;2022-09-09T09:32:15;0.50;;;0.50;;
17520;SDS011;8878;-33.370;-70.552;2022-09-09T09:34:49;2.10;;;1.90;;
17520;SDS011;8878;-33.370;-70.552;2022-09-09T09:37:21;1.73;;;1.63;;
17520;SDS011;8878;-33.370;-70.552;2022-09-09T09:39:55;0.30;;;0.30;;
17520;SDS011;8878;-33.370;-70.552;2022-09-09T09:42:24;0.73;;;0.73;;
17520;SDS011;8878;-33.370;-70.552;2022-09-09T09:44:54;0.83;;;0.77;;
17520;SDS011;8878;-33.370;-70.552;2022-09-09T09:47:26;1.20;;;0.97;;
17520;SDS011;8878;-33.370;-70.552;2022-09-09T09:49:56;1.20;;;1.17;;
17520;SDS011;8878;-33.370;-70.552;2022-09-09T09:52:28;1.60;;;1.50;;
17520;SDS011;8878;-33.370;-70.552;2022-09-09T09:55:02;0.97;;;0.97;;
17520;SDS011;8878;-33.370;-70.552;2022-09-09T09:57:33;1.70;;;1.20;;
17520;SDS011;8878;-33.370;-70.552;2022-09-09T10:00:04;1.10;;;1.10;;
17520;SDS011;8878;-33.370;-70.552;2022-09-09T10:02:46;1.27;;;1.27;;
17520;SDS011;8878;-33.370;-70.552;2022-09-09T10:05:18;2.00;;;1.20;;
17520;SDS011;8878;-33.370;-70.552;2022-09-09T10:08:00;4.07;;;1.17;;
17520;SDS011;8878;-33.370;-70.552;2022-09-09T10:10:37;0.40;;;0.40;;
17520;SDS011;8878;-33.370;-70.552;2022-09-09T10:13:17;15.90;;;2.40;;
17520;SDS011;8878;-33.370;-70.552;2022-09-09T10:15:55;1.00;;;0.83;;
17520;SDS011;8878;-33.370;-70.552;2022-09-09T10:18:44;1.37;;;1.30;;
17520;SDS011;8878;-33.370;-70.552;2022-09-09T10:21:25;0.43;;;0.43;;
17520;SDS011;8878;-33.370;-70.552;2022-09-09T10:24:34;1.33;;;0.80;;
17520;SDS011;8878;-33.370;-70.552;2022-09-09T10:27:36;1.17;;;0.50;;
17520;SDS011;8878;-33.370;-70.552;2022-09-09T10:30:14;1.27;;;1.23;;
17520;SDS011;8878;-33.370;-70.552;2022-09-09T10:32:48;3.47;;;1.63;;
17520;SDS011;8878;-33.370;-70.552;2022-09-09T10:35:27;6.20;;;2.30;;
17520;SDS011;8878;-33.370;-70.552;2022-09-09T10:38:05;0.60;;;0.60;;
17520;SDS011;8878;-33.370;-70.552;2022-09-09T10:40:43;0.73;;;0.73;;
17520;SDS011;8878;-33.370;-70.552;2022-09-09T10:43:33;1.53;;;1.40;;
17520;SDS011;8878;-33.370;-70.552;2022-09-09T10:46:17;0.97;;;0.53;;
17520;SDS011;8878;-33.370;-70.552;2022-09-09T10:49:01;1.60;;;1.30;;
17520;SDS011;8878;-33.370;-70.552;2022-09-09T10:51:45;1.80;;;0.60;;
17520;SDS011;8878;-33.370;-70.552;2022-09-09T10:54:32;0.63;;;0.53;;
17520;SDS011;8878;-33.370;-70.552;2022-09-09T10:57:17;0.93;;;0.93;;
17520;SDS011;8878;-33.370;-70.552;2022-09-09T10:59:58;0.97;;;0.93;;
17520;SDS011;8878;-33.370;-70.552;2022-09-09T11:02:32;1.17;;;1.03;;
17520;SDS011;8878;-33.370;-70.552;2022-09-09T11:05:03;0.73;;;0.73;;
17520;SDS011;8878;-33.370;-70.552;2022-09-09T11:07:37;0.30;;;0.30;;
17520;SDS011;8878;-33.370;-70.552;2022-09-09T11:10:15;1.57;;;1.47;;
17520;SDS011;8878;-33.370;-70.552;2022-09-09T11:12:49;3.47;;;1.07;;
17520;SDS011;8878;-33.370;-70.552;2022-09-09T11:15:25;1.57;;;1.10;;
17520;SDS011;8878;-33.370;-70.552;2022-09-09T11:18:04;0.37;;;0.37;;
17520;SDS011;8878;-33.370;-70.552;2022-09-09T11:20:39;1.87;;;1.17;;
17520;SDS011;8878;-33.370;-70.552;2022-09-09T11:23:11;0.83;;;0.83;;
17520;SDS011;8878;-33.370;-70.552;2022-09-09T11:25:47;0.93;;;0.93;;
17520;SDS011;8878;-33.370;-70.552;2022-09-09T11:28:31;0.80;;;0.80;;
17520;SDS011;8878;-33.370;-70.552;2022-09-09T11:31:20;1.30;;;1.30;;
17520;SDS011;8878;-33.370;-70.552;2022-09-09T11:34:05;4.80;;;1.53;;
17520;SDS011;8878;-33.370;-70.552;2022-09-09T11:39:56;1.07;;;0.97;;
17520;SDS011;8878;-33.370;-70.552;2022-09-09T11:42:45;1.50;;;1.13;;
17520;SDS011;8878;-33.370;-70.552;2022-09-09T11:45:20;0.80;;;0.80;;
17520;SDS011;8878;-33.370;-70.552;2022-09-09T11:47:54;2.03;;;1.93;;
17520;SDS011;8878;-33.370;-70.552;2022-09-09T11:50:29;2.77;;;1.10;;
17520;SDS011;8878;-33.370;-70.552;2022-09-09T11:53:04;0.73;;;0.50;;
17520;SDS011;8878;-33.370;-70.552;2022-09-09T11:56:05;2.37;;;1.27;;
17520;SDS011;8878;-33.370;-70.552;2022-09-09T11:58:38;4.53;;;0.93;;
17520;SDS011;8878;-33.370;-70.552;2022-09-09T12:01:15;2.53;;;2.43;;
17520;SDS011;8878;-33.370;-70.552;2022-09-09T12:04:04;2.37;;;2.13;;
17520;SDS011;8878;-33.370;-70.552;2022-09-09T12:06:50;1.63;;;1.53;;
17520;SDS011;8878;-33.370;-70.552;2022-09-09T12:09:25;1.03;;;0.93;;
17520;SDS011;8878;-33.370;-70.552;2022-09-09T12:12:17;0.67;;;0.67;;
17520;SDS011;8878;-33.370;-70.552;2022-09-09T12:14:55;5.23;;;1.40;;
17520;SDS011;8878;-33.370;-70.552;2022-09-09T12:17:42;1.70;;;0.93;;
17520;SDS011;8878;-33.370;-70.552;2022-09-09T12:20:13;3.60;;;3.27;;
17520;SDS011;8878;-33.370;-70.552;2022-09-09T12:26:05;3.43;;;3.13;;
17520;SDS011;8878;-33.370;-70.552;2022-09-09T12:28:55;3.07;;;1.43;;
17520;SDS011;8878;-33.370;-70.552;2022-09-09T12:31:34;4.30;;;2.20;;
17520;SDS011;8878;-33.370;-70.552;2022-09-09T12:34:10;5.93;;;2.07;;
17520;SDS011;8878;-33.370;-70.552;2022-09-09T12:36:43;7.83;;;3.83;;
17520;SDS011;8878;-33.370;-70.552;2022-09-09T12:39:19;2.60;;;2.07;;
17520;SDS011;8878;-33.370;-70.552;2022-09-09T12:41:51;5.40;;;3.53;;
17520;SDS011;8878;-33.370;-70.552;2022-09-09T12:44:24;3.00;;;2.43;;
17520;SDS011;8878;-33.370;-70.552;2022-09-09T12:46:56;1.30;;;1.20;;
17520;SDS011;8878;-33.370;-70.552;2022-09-09T12:49:30;2.93;;;2.73;;
17520;SDS011;8878;-33.370;-70.552;2022-09-09T12:52:04;4.97;;;2.43;;
17520;SDS011;8878;-33.370;-70.552;2022-09-09T12:54:37;4.40;;;2.27;;
17520;SDS011;8878;-33.370;-70.552;2022-09-09T12:57:12;4.50;;;2.43;;
17520;SDS011;8878;-33.370;-70.552;2022-09-09T12:59:44;3.87;;;2.57;;
17520;SDS011;8878;-33.370;-70.552;2022-09-09T13:02:18;1.90;;;1.80;;
17520;SDS011;8878;-33.370;-70.552;2022-09-09T13:04:49;2.33;;;2.20;;
17520;SDS011;8878;-33.370;-70.552;2022-09-09T13:07:20;3.27;;;1.27;;
17520;SDS011;8878;-33.370;-70.552;2022-09-09T13:09:51;4.33;;;2.83;;
17520;SDS011;8878;-33.370;-70.552;2022-09-09T13:12:21;6.83;;;3.07;;
17520;SDS011;8878;-33.370;-70.552;2022-09-09T13:14:53;2.83;;;2.33;;
17520;SDS011;8878;-33.370;-70.552;2022-09-09T13:17:24;9.17;;;3.77;;
17520;SDS011;8878;-33.370;-70.552;2022-09-09T13:19:55;10.73;;;2.53;;
17520;SDS011;8878;-33.370;-70.552;2022-09-09T13:22:28;1.77;;;1.67;;
17520;SDS011;8878;-33.370;-70.552;2022-09-09T13:25:00;3.07;;;2.77;;
17520;SDS011;8878;-33.370;-70.552;2022-09-09T13:27:31;4.57;;;2.77;;
17520;SDS011;8878;-33.370;-70.552;2022-09-09T13:33:22;2.43;;;2.13;;
17520;SDS011;8878;-33.370;-70.552;2022-09-09T13:35:52;4.30;;;3.80;;
17520;SDS011;8878;-33.370;-70.552;2022-09-09T13:38:24;4.40;;;2.20;;
17520;SDS011;8878;-33.370;-70.552;2022-09-09T13:40:56;7.30;;;2.97;;
17520;SDS011;8878;-33.370;-70.552;2022-09-09T13:43:28;7.47;;;4.03;;
17520;SDS011;8878;-33.370;-70.552;2022-09-09T13:46:00;2.47;;;2.03;;
17520;SDS011;8878;-33.370;-70.552;2022-09-09T13:48:33;3.27;;;2.83;;
17520;SDS011;8878;-33.370;-70.552;2022-09-09T13:51:03;3.23;;;2.83;;
17520;SDS011;8878;-33.370;-70.552;2022-09-09T13:53:34;3.10;;;2.90;;
17520;SDS011;8878;-33.370;-70.552;2022-09-09T13:56:03;4.43;;;1.90;;
17520;SDS011;8878;-33.370;-70.552;2022-09-09T13:58:33;2.37;;;2.27;;
17520;SDS011;8878;-33.370;-70.552;2022-09-09T14:01:02;3.17;;;2.73;;
17520;SDS011;8878;-33.370;-70.552;2022-09-09T14:03:33;4.37;;;2.07;;
17520;SDS011;8878;-33.370;-70.552;2022-09-09T14:06:04;17.00;;;2.77;;
17520;SDS011;8878;-33.370;-70.552;2022-09-09T14:08:34;2.33;;;2.07;;
17520;SDS011;8878;-33.370;-70.552;2022-09-09T14:11:04;8.83;;;3.27;;
17520;SDS011;8878;-33.370;-70.552;2022-09-09T14:13:35;2.80;;;2.53;;
17520;SDS011;8878;-33.370;-70.552;2022-09-09T14:16:04;5.13;;;2.67;;
17520;SDS011;8878;-33.370;-70.552;2022-09-09T14:18:36;5.93;;;2.80;;
17520;SDS011;8878;-33.370;-70.552;2022-09-09T14:21:06;2.17;;;1.93;;
17520;SDS011;8878;-33.370;-70.552;2022-09-09T14:23:36;2.80;;;2.13;;
17520;SDS011;8878;-33.370;-70.552;2022-09-09T14:26:06;3.87;;;2.33;;
17520;SDS011;8878;-33.370;-70.552;2022-09-09T14:28:36;5.83;;;3.47;;
17520;SDS011;8878;-33.370;-70.552;2022-09-09T14:31:06;2.90;;;2.50;;
17520;SDS011;8878;-33.370;-70.552;2022-09-09T14:33:38;5.43;;;2.50;;
17520;SDS011;8878;-33.370;-70.552;2022-09-09T14:36:08;2.77;;;2.33;;
17520;SDS011;8878;-33.370;-70.552;2022-09-09T14:38:38;4.13;;;2.27;;
17520;SDS011;8878;-33.370;-70.552;2022-09-09T14:41:08;2.83;;;2.43;;
17520;SDS011;8878;-33.370;-70.552;2022-09-09T14:43:39;2.33;;;2.13;;
17520;SDS011;8878;-33.370;-70.552;2022-09-09T14:46:09;6.40;;;3.60;;
17520;SDS011;8878;-33.370;-70.552;2022-09-09T14:48:42;8.60;;;4.07;;
17520;SDS011;8878;-33.370;-70.552;2022-09-09T14:51:14;2.60;;;1.80;;
17520;SDS011;8878;-33.370;-70.552;2022-09-09T14:53:45;3.93;;;2.40;;
17520;SDS011;8878;-33.370;-70.552;2022-09-09T14:56:15;3.70;;;2.20;;
17520;SDS011;8878;-33.370;-70.552;2022-09-09T14:58:46;2.13;;;1.90;;
17520;SDS011;8878;-33.370;-70.552;2022-09-09T15:01:15;6.77;;;3.53;;
17520;SDS011;8878;-33.370;-70.552;2022-09-09T15:03:50;2.03;;;1.93;;
17520;SDS011;8878;-33.370;-70.552;2022-09-09T15:06:21;3.63;;;2.67;;
17520;SDS011;8878;-33.370;-70.552;2022-09-09T15:08:52;4.63;;;3.37;;
17520;SDS011;8878;-33.370;-70.552;2022-09-09T15:11:23;9.10;;;4.07;;